createdAt,value
2023-03-28T00:01:11.577Z,1.30
2023-03-28T00:03:40.680Z,1.30
2023-03-28T00:06:11.606Z,1.20
2023-03-28T00:08:40.830Z,1.30
2023-03-28T00:11:11.361Z,1.30
2023-03-28T00:13:41.042Z,1.30
2023-03-28T00:16:12.971Z,1.30
2023-03-28T00:18:42.432Z,1.30
2023-03-28T00:21:23.138Z,1.30
2023-03-28T00:23:53.402Z,1.20
2023-03-28T00:26:24.561Z,1.20
2023-03-28T00:28:54.652Z,1.20
2023-03-28T00:31:25.419Z,1.10
2023-03-28T00:33:54.038Z,1.10
2023-03-28T00:36:26.479Z,1.10
2023-03-28T00:38:55.316Z,1.10
2023-03-28T00:41:24.986Z,1.10
2023-03-28T00:43:56.261Z,1.20
2023-03-28T00:46:29.758Z,1.10
2023-03-28T00:49:02.511Z,1.20
2023-03-28T00:51:34.333Z,1.20
2023-03-28T00:54:04.065Z,1.20
2023-03-28T00:56:36.968Z,1.20
2023-03-28T00:59:12.661Z,1.20
2023-03-28T01:01:41.146Z,1.20
2023-03-28T01:04:10.265Z,1.10
2023-03-28T01:06:42.824Z,1.10
2023-03-28T01:09:16.638Z,1.10
2023-03-28T01:11:50.998Z,1.00
2023-03-28T01:14:23.903Z,1.00
2023-03-28T01:16:56.278Z,1.10
2023-03-28T01:19:42.664Z,1.00
2023-03-28T01:22:33.331Z,1.00
2023-03-28T01:25:37.664Z,1.00
2023-03-28T01:28:11.240Z,1.00
2023-03-28T01:31:26.340Z,0.90
2023-03-28T01:34:35.757Z,0.90
2023-03-28T01:37:26.501Z,0.80
2023-03-28T01:40:12.085Z,0.80
2023-03-28T01:42:55.768Z,0.80
2023-03-28T01:45:34.211Z,0.90
2023-03-28T01:48:10.142Z,0.80
2023-03-28T01:50:44.068Z,0.80
2023-03-28T01:53:19.592Z,0.80
2023-03-28T01:55:55.284Z,0.80
2023-03-28T01:58:31.234Z,0.70
2023-03-28T02:01:13.539Z,0.70
2023-03-28T02:03:46.091Z,0.70
2023-03-28T02:06:36.181Z,0.70
2023-03-28T02:09:09.712Z,0.70
2023-03-28T02:12:00.671Z,0.60
2023-03-28T02:14:42.229Z,0.60
2023-03-28T02:17:32.248Z,0.50
2023-03-28T02:20:26.419Z,0.50
2023-03-28T02:23:19.202Z,0.40
2023-03-28T02:25:52.663Z,0.40
2023-03-28T02:28:38.630Z,0.30
2023-03-28T02:31:13.636Z,0.30
2023-03-28T02:33:43.669Z,0.30
2023-03-28T02:36:27.552Z,0.30
2023-03-28T02:39:07.287Z,0.30
2023-03-28T02:41:48.892Z,0.40
2023-03-28T02:44:33.537Z,0.40
2023-03-28T02:47:09.519Z,0.40
2023-03-28T02:49:50.839Z,0.40
2023-03-28T02:52:34.835Z,0.40
2023-03-28T02:55:13.783Z,0.40
2023-03-28T02:58:00.315Z,0.50
2023-03-28T03:00:29.627Z,0.50
2023-03-28T03:02:58.608Z,0.50
2023-03-28T03:05:27.100Z,0.50
2023-03-28T03:07:55.931Z,0.50
2023-03-28T03:10:25.512Z,0.50
2023-03-28T03:12:55.240Z,0.60
2023-03-28T03:15:23.792Z,0.60
2023-03-28T03:17:55.580Z,0.50
2023-03-28T03:20:27.248Z,0.50
2023-03-28T03:22:56.586Z,0.50
2023-03-28T03:25:25.053Z,0.50
2023-03-28T03:28:01.429Z,0.40
2023-03-28T03:30:30.512Z,0.40
2023-03-28T03:33:17.068Z,0.40
2023-03-28T03:35:48.815Z,0.40
2023-03-28T03:38:20.048Z,0.40
2023-03-28T03:40:48.399Z,0.30
2023-03-28T03:43:18.885Z,0.30
2023-03-28T03:45:47.183Z,0.30
2023-03-28T03:48:15.907Z,0.30
2023-03-28T03:50:44.192Z,0.30
2023-03-28T03:53:16.487Z,0.30
2023-03-28T03:55:53.232Z,0.30
2023-03-28T03:58:23.137Z,0.30
2023-03-28T04:00:52.020Z,0.30
2023-03-28T04:03:33.784Z,0.30
2023-03-28T04:06:05.283Z,0.30
2023-03-28T04:08:35.076Z,0.20
2023-03-28T04:11:04.846Z,0.20
2023-03-28T04:13:40.702Z,0.20
2023-03-28T04:16:10.595Z,0.10
2023-03-28T04:18:50.444Z,0.00
2023-03-28T04:21:27.414Z,0.00
2023-03-28T04:23:58.617Z,0.00
2023-03-28T04:26:37.956Z,-0.10
2023-03-28T04:29:10.435Z,0.00
2023-03-28T04:31:40.906Z,0.00
2023-03-28T04:34:30.778Z,0.00
2023-03-28T04:37:09.111Z,0.00
2023-03-28T04:39:48.581Z,0.10
2023-03-28T04:42:36.357Z,0.10
2023-03-28T04:45:14.593Z,0.10
2023-03-28T04:47:44.889Z,0.10
2023-03-28T04:50:22.338Z,0.10
2023-03-28T04:52:50.940Z,0.20
2023-03-28T04:55:20.114Z,0.20
2023-03-28T04:57:50.461Z,0.10
2023-03-28T05:00:23.746Z,0.10
2023-03-28T05:03:14.155Z,0.10
2023-03-28T05:05:52.310Z,0.10
2023-03-28T05:08:23.762Z,0.20
2023-03-28T05:10:52.625Z,0.20
2023-03-28T05:13:23.855Z,0.20
2023-03-28T05:16:13.744Z,0.30
2023-03-28T05:19:02.429Z,0.30
2023-03-28T05:21:50.671Z,0.30
2023-03-28T05:24:19.163Z,0.30
2023-03-28T05:26:47.742Z,0.30
2023-03-28T05:29:16.104Z,0.30
2023-03-28T05:31:49.715Z,0.30
2023-03-28T05:34:24.301Z,0.30
2023-03-28T05:36:52.674Z,0.30
2023-03-28T05:39:26.460Z,0.30
2023-03-28T05:42:01.410Z,0.30
2023-03-28T05:44:29.689Z,0.40
2023-03-28T05:47:20.267Z,0.40
2023-03-28T05:49:48.524Z,0.40
2023-03-28T05:52:17.159Z,0.40
2023-03-28T05:54:50.629Z,0.50
2023-03-28T05:57:22.815Z,0.60
2023-03-28T05:59:51.506Z,0.60
2023-03-28T06:02:25.089Z,0.60
2023-03-28T06:05:00.262Z,0.70
2023-03-28T06:07:41.509Z,0.80
2023-03-28T06:10:14.635Z,0.80
2023-03-28T06:12:51.651Z,0.90
2023-03-28T06:15:19.996Z,1.00
2023-03-28T06:17:53.073Z,1.00
2023-03-28T06:20:21.603Z,1.10
2023-03-28T06:22:54.714Z,1.20
2023-03-28T06:25:23.010Z,1.30
2023-03-28T06:27:51.349Z,1.40
2023-03-28T06:30:20.451Z,1.50
2023-03-28T06:32:53.813Z,1.60
2023-03-28T06:35:22.136Z,1.60
2023-03-28T06:37:50.420Z,1.70
2023-03-28T06:40:26.420Z,1.80
2023-03-28T06:42:54.978Z,1.90
2023-03-28T06:45:39.025Z,1.90
2023-03-28T06:48:13.232Z,2.00
2023-03-28T06:51:01.958Z,2.10
2023-03-28T06:53:30.982Z,2.20
2023-03-28T06:56:00.300Z,2.30
2023-03-28T06:58:31.625Z,2.40
2023-03-28T07:01:08.357Z,2.50
2023-03-28T07:03:59.683Z,2.50
2023-03-28T07:06:29.488Z,2.60
2023-03-28T07:08:58.773Z,2.60
2023-03-28T07:11:39.255Z,2.60
2023-03-28T07:14:08.521Z,2.70
2023-03-28T07:16:36.763Z,2.80
2023-03-28T07:19:07.556Z,2.90
2023-03-28T07:21:38.153Z,3.00
2023-03-28T07:24:06.975Z,3.10
2023-03-28T07:26:47.933Z,3.10
2023-03-28T07:29:16.341Z,3.30
2023-03-28T07:31:44.575Z,3.30
2023-03-28T07:34:18.718Z,3.30
2023-03-28T07:36:47.285Z,3.30
2023-03-28T07:39:22.747Z,3.40
2023-03-28T07:41:55.340Z,3.50
2023-03-28T07:44:23.721Z,3.70
2023-03-28T07:46:52.790Z,3.70
2023-03-28T07:49:22.672Z,3.90
2023-03-28T07:51:52.616Z,4.10
2023-03-28T07:54:21.627Z,4.30
2023-03-28T07:56:50.330Z,4.40
2023-03-28T07:59:25.980Z,4.50
2023-03-28T08:01:55.564Z,4.60
2023-03-28T08:04:25.744Z,4.70
2023-03-28T08:07:02.244Z,4.80
2023-03-28T08:09:30.648Z,4.80
2023-03-28T08:12:19.509Z,5.00
2023-03-28T08:14:49.205Z,5.10
2023-03-28T08:17:23.555Z,5.40
2023-03-28T08:19:54.760Z,5.60
2023-03-28T08:22:43.007Z,5.80
2023-03-28T08:25:31.170Z,6.10
2023-03-28T08:28:00.192Z,6.30
2023-03-28T08:30:28.633Z,6.40
2023-03-28T08:33:04.312Z,6.50
2023-03-28T08:35:34.873Z,6.70
2023-03-28T08:38:11.363Z,6.80
2023-03-28T08:40:45.053Z,6.80
2023-03-28T08:43:37.952Z,6.90
2023-03-28T08:46:07.477Z,7.10
2023-03-28T08:48:40.872Z,7.20
2023-03-28T08:51:20.658Z,7.30
2023-03-28T08:53:54.835Z,7.40
2023-03-28T08:56:25.826Z,7.70
2023-03-28T08:59:08.267Z,7.90
2023-03-28T09:01:36.808Z,7.80
2023-03-28T09:04:05.641Z,7.60
2023-03-28T09:06:40.930Z,7.70
2023-03-28T09:09:28.847Z,7.90
2023-03-28T09:12:36.425Z,8.10
2023-03-28T09:15:23.470Z,8.10
2023-03-28T09:18:04.899Z,8.20
2023-03-28T09:20:37.626Z,8.60
2023-03-28T09:23:24.418Z,8.80
2023-03-28T09:26:17.618Z,8.70
2023-03-28T09:28:53.892Z,8.70
2023-03-28T09:31:27.794Z,8.90
2023-03-28T09:34:00.388Z,9.00
2023-03-28T09:36:48.923Z,9.20
2023-03-28T09:39:31.014Z,9.40
2023-03-28T09:42:06.166Z,9.20
2023-03-28T09:44:59.030Z,9.20
2023-03-28T09:47:48.786Z,9.20
2023-03-28T09:50:21.752Z,9.10
2023-03-28T09:52:57.896Z,9.40
2023-03-28T09:55:30.987Z,9.70
2023-03-28T09:58:02.436Z,9.90
2023-03-28T10:00:37.015Z,10.10
2023-03-28T10:03:32.281Z,10.20
2023-03-28T10:06:19.603Z,10.00
2023-03-28T10:08:48.945Z,9.40
2023-03-28T10:11:23.858Z,8.90
2023-03-28T10:13:55.521Z,9.00
2023-03-28T10:16:28.160Z,9.20
2023-03-28T10:19:13.966Z,9.70
2023-03-28T10:21:53.091Z,10.00
2023-03-28T10:24:26.843Z,10.20
2023-03-28T10:27:07.026Z,10.40
2023-03-28T10:29:37.408Z,10.40
2023-03-28T10:32:06.851Z,10.50
2023-03-28T10:34:42.647Z,10.50
2023-03-28T10:37:25.156Z,10.60
2023-03-28T10:40:25.890Z,10.70
2023-03-28T10:43:16.437Z,10.70
2023-03-28T10:45:52.704Z,10.20
2023-03-28T10:48:34.751Z,10.30
2023-03-28T10:51:10.926Z,10.50
2023-03-28T10:53:59.725Z,10.80
2023-03-28T10:56:38.554Z,10.70
2023-03-28T10:59:24.796Z,10.70
2023-03-28T11:02:12.297Z,10.60
2023-03-28T11:04:57.898Z,10.20
2023-03-28T11:07:33.938Z,9.80
2023-03-28T11:10:15.731Z,9.60
2023-03-28T11:13:10.482Z,9.50
2023-03-28T11:15:54.831Z,9.50
2023-03-28T11:18:40.759Z,10.10
2023-03-28T11:21:23.260Z,10.50
2023-03-28T11:24:02.698Z,10.70
2023-03-28T11:27:12.671Z,10.90
2023-03-28T11:30:11.991Z,10.90
2023-03-28T11:32:51.605Z,10.80
2023-03-28T11:35:27.711Z,11.10
2023-03-28T11:38:03.860Z,11.40
2023-03-28T11:40:38.122Z,11.50
2023-03-28T11:43:16.944Z,11.40
2023-03-28T11:45:52.953Z,11.30
2023-03-28T11:48:32.333Z,11.40
2023-03-28T11:51:09.644Z,11.40
2023-03-28T11:53:52.491Z,11.60
2023-03-28T11:56:31.617Z,11.70
2023-03-28T11:59:12.579Z,11.70
2023-03-28T12:01:46.010Z,11.60
2023-03-28T12:04:22.217Z,11.80
2023-03-28T12:07:03.446Z,12.40
2023-03-28T12:09:48.629Z,13.00
2023-03-28T12:12:22.712Z,13.10
2023-03-28T12:14:56.796Z,13.10
2023-03-28T12:17:43.314Z,12.90
2023-03-28T12:20:29.144Z,12.70
2023-03-28T12:23:04.486Z,12.80
2023-03-28T12:25:59.190Z,12.70
2023-03-28T12:28:33.154Z,12.50
2023-03-28T12:31:10.678Z,12.40
2023-03-28T12:33:49.045Z,12.30
2023-03-28T12:36:43.984Z,12.30
2023-03-28T12:39:25.698Z,12.30
2023-03-28T12:41:55.787Z,12.10
2023-03-28T12:44:28.233Z,11.90
2023-03-28T12:47:03.359Z,12.00
2023-03-28T12:49:41.527Z,12.20
2023-03-28T12:52:16.861Z,12.40
2023-03-28T12:55:00.333Z,12.60
2023-03-28T12:57:46.953Z,12.80
2023-03-28T13:00:42.896Z,13.10
2023-03-28T13:03:40.679Z,13.00
2023-03-28T13:06:19.816Z,13.00
2023-03-28T13:09:16.990Z,13.10
2023-03-28T13:11:54.176Z,13.30
2023-03-28T13:14:36.370Z,13.50
2023-03-28T13:17:19.505Z,14.00
2023-03-28T13:19:52.789Z,14.10
2023-03-28T13:22:31.853Z,13.90
2023-03-28T13:25:28.328Z,13.80
2023-03-28T13:28:00.489Z,14.10
2023-03-28T13:30:30.915Z,14.00
2023-03-28T13:33:03.265Z,14.00
2023-03-28T13:35:45.297Z,13.80
2023-03-28T13:38:16.705Z,13.70
2023-03-28T13:40:54.464Z,13.60
2023-03-28T13:43:25.770Z,13.20
2023-03-28T13:45:57.319Z,13.00
2023-03-28T13:48:31.497Z,12.80
2023-03-28T13:51:02.734Z,12.70
2023-03-28T13:53:46.484Z,12.60
2023-03-28T13:56:26.485Z,12.70
2023-03-28T13:58:56.802Z,12.60
2023-03-28T14:01:27.266Z,12.50
2023-03-28T14:03:56.807Z,12.40
2023-03-28T14:06:27.725Z,12.50
2023-03-28T14:09:00.402Z,12.70
2023-03-28T14:11:35.750Z,12.70
2023-03-28T14:14:09.474Z,12.90
2023-03-28T14:16:39.021Z,12.90
2023-03-28T14:19:09.199Z,13.00
2023-03-28T14:21:37.672Z,13.10
2023-03-28T14:24:08.174Z,13.10
2023-03-28T14:26:38.458Z,13.10
2023-03-28T14:29:11.871Z,13.30
2023-03-28T14:31:45.990Z,13.50
2023-03-28T14:34:19.630Z,13.40
2023-03-28T14:37:00.859Z,13.30
2023-03-28T14:39:31.417Z,13.20
2023-03-28T14:42:04.124Z,13.20
2023-03-28T14:44:36.944Z,13.30
2023-03-28T14:47:05.600Z,13.20
2023-03-28T14:49:34.192Z,13.10
2023-03-28T14:52:03.561Z,13.10
2023-03-28T14:54:35.378Z,13.00
2023-03-28T14:57:06.358Z,12.80
2023-03-28T14:59:37.899Z,12.70
2023-03-28T15:02:07.549Z,12.80
2023-03-28T15:04:36.981Z,12.60
2023-03-28T15:07:08.936Z,12.40
2023-03-28T15:09:37.222Z,12.00
2023-03-28T15:12:09.152Z,11.70
2023-03-28T15:14:42.521Z,11.40
2023-03-28T15:17:18.758Z,11.10
2023-03-28T15:19:50.088Z,10.90
2023-03-28T15:22:24.695Z,10.90
2023-03-28T15:24:53.239Z,11.40
2023-03-28T15:27:27.923Z,11.80
2023-03-28T15:29:56.793Z,12.20
2023-03-28T15:32:27.743Z,12.40
2023-03-28T15:35:00.672Z,12.40
2023-03-28T15:37:29.079Z,12.20
2023-03-28T15:40:19.475Z,11.80
2023-03-28T15:42:51.050Z,11.60
2023-03-28T15:45:38.878Z,11.60
2023-03-28T15:48:07.729Z,11.80
2023-03-28T15:50:38.829Z,12.10
2023-03-28T15:53:09.020Z,12.10
2023-03-28T15:55:37.461Z,12.00
2023-03-28T15:58:10.567Z,11.50
2023-03-28T16:00:41.700Z,11.00
2023-03-28T16:03:30.359Z,10.70
2023-03-28T16:06:10.054Z,10.30
2023-03-28T16:08:42.221Z,10.20
2023-03-28T16:11:18.523Z,10.10
2023-03-28T16:14:10.314Z,9.90
2023-03-28T16:16:56.400Z,9.80
2023-03-28T16:19:34.890Z,10.10
2023-03-28T16:22:03.883Z,10.30
2023-03-28T16:24:32.441Z,10.40
2023-03-28T16:27:01.280Z,10.60
2023-03-28T16:29:31.661Z,10.80
2023-03-28T16:31:59.969Z,10.60
2023-03-28T16:34:28.421Z,10.20
2023-03-28T16:36:57.931Z,9.80
2023-03-28T16:39:26.572Z,9.60
2023-03-28T16:41:54.777Z,9.50
2023-03-28T16:44:23.109Z,9.40
2023-03-28T16:46:52.948Z,9.40
2023-03-28T16:49:21.406Z,9.40
2023-03-28T16:51:49.682Z,9.30
2023-03-28T16:54:18.868Z,9.20
2023-03-28T16:56:47.876Z,9.20
2023-03-28T16:59:16.486Z,9.00
2023-03-28T17:01:46.401Z,8.80
2023-03-28T17:04:16.329Z,8.70
2023-03-28T17:06:44.679Z,8.60
2023-03-28T17:09:13.242Z,8.40
2023-03-28T17:11:42.793Z,8.30
2023-03-28T17:14:11.370Z,8.20
2023-03-28T17:16:40.627Z,8.10
2023-03-28T17:19:09.168Z,8.10
2023-03-28T17:21:39.111Z,8.00
2023-03-28T17:24:11.248Z,7.90
2023-03-28T17:26:39.680Z,7.70
2023-03-28T17:29:09.552Z,7.50
2023-03-28T17:31:38.005Z,7.50
2023-03-28T17:34:06.689Z,7.30
2023-03-28T17:36:35.701Z,7.20
2023-03-28T17:39:06.235Z,7.10
2023-03-28T17:41:34.551Z,6.90
2023-03-28T17:44:02.906Z,6.80
2023-03-28T17:46:31.203Z,6.70
2023-03-28T17:48:59.750Z,6.60
2023-03-28T17:51:28.285Z,6.60
2023-03-28T17:53:56.628Z,6.50
2023-03-28T17:56:26.426Z,6.40
2023-03-28T17:58:55.250Z,6.30
2023-03-28T18:01:24.005Z,6.20
2023-03-28T18:03:52.828Z,6.10
2023-03-28T18:06:41.454Z,6.10
2023-03-28T18:09:10.019Z,6.00
2023-03-28T18:11:39.838Z,6.00
2023-03-28T18:14:09.089Z,5.90
2023-03-28T18:16:38.680Z,5.90
2023-03-28T18:19:09.005Z,5.90
2023-03-28T18:21:38.135Z,5.90
2023-03-28T18:24:07.935Z,5.90
2023-03-28T18:26:36.398Z,5.90
2023-03-28T18:29:06.199Z,5.90
2023-03-28T18:31:36.758Z,5.90
2023-03-28T18:34:05.194Z,5.80
2023-03-28T18:36:36.911Z,5.90
2023-03-28T18:39:06.995Z,5.90
2023-03-28T18:41:35.598Z,5.90
2023-03-28T18:44:05.407Z,5.80
2023-03-28T18:46:34.320Z,5.80
2023-03-28T18:49:02.876Z,5.80
2023-03-28T18:51:31.378Z,5.80
2023-03-28T18:54:00.370Z,5.80
2023-03-28T18:56:28.920Z,5.80
2023-03-28T18:58:57.215Z,5.80
2023-03-28T19:01:26.915Z,5.80
2023-03-28T19:03:55.525Z,5.90
2023-03-28T19:06:24.041Z,5.90
2023-03-28T19:08:52.625Z,6.00
2023-03-28T19:11:21.234Z,6.00
2023-03-28T19:13:50.361Z,6.10
2023-03-28T19:16:19.561Z,6.10
2023-03-28T19:18:49.240Z,6.10
2023-03-28T19:21:17.880Z,6.10
2023-03-28T19:23:48.570Z,6.20
2023-03-28T19:26:18.176Z,6.20
2023-03-28T19:28:48.381Z,6.20
2023-03-28T19:31:17.704Z,6.20
2023-03-28T19:33:46.343Z,6.20
2023-03-28T19:36:15.874Z,6.20
2023-03-28T19:38:44.798Z,6.10
2023-03-28T19:41:18.669Z,6.10
2023-03-28T19:43:47.851Z,6.10
2023-03-28T19:46:20.250Z,6.10
2023-03-28T19:48:49.200Z,6.00
2023-03-28T19:51:18.689Z,6.00
2023-03-28T19:53:47.079Z,5.90
2023-03-28T19:56:18.743Z,5.90
2023-03-28T19:58:47.527Z,5.80
2023-03-28T20:01:16.167Z,5.80
2023-03-28T20:03:44.612Z,5.70
2023-03-28T20:06:14.069Z,5.60
2023-03-28T20:08:43.854Z,5.60
2023-03-28T20:11:13.514Z,5.50
2023-03-28T20:13:42.261Z,5.50
2023-03-28T20:16:12.301Z,5.50
2023-03-28T20:18:40.813Z,5.40
2023-03-28T20:21:11.664Z,5.40
2023-03-28T20:23:40.086Z,5.40
2023-03-28T20:26:19.746Z,5.30
2023-03-28T20:28:49.605Z,5.40
2023-03-28T20:31:18.608Z,5.40
2023-03-28T20:33:47.050Z,5.40
2023-03-28T20:36:15.396Z,5.40
2023-03-28T20:38:43.778Z,5.30
2023-03-28T20:41:12.726Z,5.30
2023-03-28T20:43:46.854Z,5.30
2023-03-28T20:46:18.774Z,5.30
2023-03-28T20:48:48.033Z,5.30
2023-03-28T20:51:18.647Z,5.40
2023-03-28T20:53:49.529Z,5.50
2023-03-28T20:56:19.971Z,5.70
2023-03-28T20:58:50.476Z,5.90
2023-03-28T21:01:25.149Z,6.10
2023-03-28T21:03:54.582Z,6.30
2023-03-28T21:06:25.169Z,6.40
2023-03-28T21:08:55.159Z,6.50
2023-03-28T21:11:26.349Z,6.60
2023-03-28T21:13:57.456Z,6.60
2023-03-28T21:16:26.599Z,6.60
2023-03-28T21:18:55.066Z,6.60
2023-03-28T21:21:24.208Z,6.50
2023-03-28T21:23:53.120Z,6.50
2023-03-28T21:26:23.106Z,6.50
2023-03-28T21:28:53.147Z,6.50
2023-03-28T21:31:25.594Z,6.50
2023-03-28T21:33:56.681Z,6.50
2023-03-28T21:36:25.401Z,6.60
2023-03-28T21:38:53.799Z,6.50
2023-03-28T21:41:22.470Z,6.60
2023-03-28T21:43:51.830Z,6.60
2023-03-28T21:46:20.914Z,6.60
2023-03-28T21:48:50.895Z,6.50
2023-03-28T21:51:19.997Z,6.50
2023-03-28T21:53:48.537Z,6.40
2023-03-28T21:56:16.969Z,6.50
2023-03-28T21:58:45.690Z,6.50
2023-03-28T22:01:17.424Z,6.40
2023-03-28T22:03:46.598Z,6.40
2023-03-28T22:06:18.322Z,6.50
2023-03-28T22:08:51.545Z,6.40
2023-03-28T22:11:27.833Z,6.40
2023-03-28T22:14:01.308Z,6.40
2023-03-28T22:16:32.359Z,6.30
2023-03-28T22:19:01.008Z,6.30
2023-03-28T22:21:31.442Z,6.30
2023-03-28T22:24:02.534Z,6.20
2023-03-28T22:26:31.600Z,6.20
2023-03-28T22:29:00.325Z,6.20
2023-03-28T22:31:29.343Z,6.10
2023-03-28T22:33:57.748Z,6.10
2023-03-28T22:36:26.236Z,6.00
2023-03-28T22:38:56.923Z,6.00
2023-03-28T22:41:25.408Z,5.90
2023-03-28T22:43:53.902Z,5.90
2023-03-28T22:46:22.326Z,5.80
2023-03-28T22:48:54.146Z,5.80
2023-03-28T22:51:24.900Z,5.70
2023-03-28T22:53:53.252Z,5.70
2023-03-28T22:56:25.330Z,5.70
2023-03-28T22:58:53.969Z,5.70
2023-03-28T23:01:25.890Z,5.60
2023-03-28T23:03:54.513Z,5.60
2023-03-28T23:06:22.778Z,5.60
2023-03-28T23:08:50.990Z,5.60
2023-03-28T23:11:19.253Z,5.60
2023-03-28T23:13:48.804Z,5.60
2023-03-28T23:16:17.274Z,5.50
2023-03-28T23:18:45.577Z,5.50
2023-03-28T23:21:13.888Z,5.50
2023-03-28T23:23:42.277Z,5.50
2023-03-28T23:26:10.648Z,5.50
2023-03-28T23:28:39.113Z,5.50
2023-03-28T23:31:10.209Z,5.50
2023-03-28T23:33:39.035Z,5.50
2023-03-28T23:36:08.361Z,5.50
2023-03-28T23:38:36.755Z,5.50
2023-03-28T23:41:09.728Z,5.50
2023-03-28T23:43:38.250Z,5.50
2023-03-28T23:46:08.915Z,5.50
2023-03-28T23:48:37.676Z,5.50
2023-03-28T23:51:06.771Z,5.50
2023-03-28T23:53:35.092Z,5.50
2023-03-28T23:56:03.831Z,5.50
2023-03-28T23:58:32.103Z,5.50
